YWGM weather

White Gum Air Park
York, Western Australia, Australia

Public forecast

Using degrees Celsius for public forecast. Weather courtesy of forecast.io.

METAR (pilot weather report)

Closest report is RAAF Base Pearce, 48.5 nm (89.8 km) WNW. Retrieved 2019/03/22 16:30 UTC (16 minutes ago):

YPEA 221630Z AUTO 11015KT 9999 // OVC028 19/13 Q1017

TAF (pilot weather forecast)

Closest forecast is RAAF Base Pearce, 48.5 nm (89.8 km) WNW. Retrieved 2019/03/22 12:36 UTC (4 hours ago):

TAF YPEA 221023Z 2212/2306 15014KT 9999 FEW018 FM230100 11013KT CAVOK FM230500 15012KT CAVOK